sensor_id;sensor_type;location;lat;lon;timestamp;P1;durP1;ratioP1;P2;durP2;ratioP2
76818;SDS011;65772;51.096;17.006;2023-05-01T00:02:16;18.30;;;11.20;;
76818;SDS011;65772;51.096;17.006;2023-05-01T00:04:47;19.00;;;11.60;;
76818;SDS011;65772;51.096;17.006;2023-05-01T00:07:18;19.60;;;11.40;;
76818;SDS011;65772;51.096;17.006;2023-05-01T00:09:49;20.40;;;11.70;;
76818;SDS011;65772;51.096;17.006;2023-05-01T00:12:19;16.50;;;11.00;;
76818;SDS011;65772;51.096;17.006;2023-05-01T00:14:50;19.30;;;11.80;;
76818;SDS011;65772;51.096;17.006;2023-05-01T00:17:21;20.00;;;10.60;;
76818;SDS011;65772;51.096;17.006;2023-05-01T00:19:52;23.90;;;12.40;;
76818;SDS011;65772;51.096;17.006;2023-05-01T00:22:23;21.60;;;11.10;;
76818;SDS011;65772;51.096;17.006;2023-05-01T00:24:54;19.60;;;10.80;;
76818;SDS011;65772;51.096;17.006;2023-05-01T00:27:24;20.30;;;10.70;;
76818;SDS011;65772;51.096;17.006;2023-05-01T00:29:55;19.50;;;10.30;;
76818;SDS011;65772;51.096;17.006;2023-05-01T00:32:25;21.40;;;10.90;;
76818;SDS011;65772;51.096;17.006;2023-05-01T00:34:56;22.40;;;11.20;;
76818;SDS011;65772;51.096;17.006;2023-05-01T00:37:26;17.80;;;10.50;;
76818;SDS011;65772;51.096;17.006;2023-05-01T00:39:57;17.20;;;10.50;;
76818;SDS011;65772;51.096;17.006;2023-05-01T00:42:27;16.50;;;10.00;;
76818;SDS011;65772;51.096;17.006;2023-05-01T00:45:04;18.60;;;10.80;;
76818;SDS011;65772;51.096;17.006;2023-05-01T00:47:36;19.90;;;10.60;;
76818;SDS011;65772;51.096;17.006;2023-05-01T00:50:07;18.20;;;10.20;;
76818;SDS011;65772;51.096;17.006;2023-05-01T00:52:38;20.20;;;10.40;;
76818;SDS011;65772;51.096;17.006;2023-05-01T00:55:09;17.00;;;10.20;;
76818;SDS011;65772;51.096;17.006;2023-05-01T00:57:40;21.10;;;10.80;;
76818;SDS011;65772;51.096;17.006;2023-05-01T01:00:11;19.70;;;11.40;;
76818;SDS011;65772;51.096;17.006;2023-05-01T01:02:44;17.40;;;10.30;;
76818;SDS011;65772;51.096;17.006;2023-05-01T01:05:16;18.70;;;10.80;;
76818;SDS011;65772;51.096;17.006;2023-05-01T01:07:50;22.00;;;10.40;;
76818;SDS011;65772;51.096;17.006;2023-05-01T01:10:29;19.40;;;10.60;;
76818;SDS011;65772;51.096;17.006;2023-05-01T01:13:10;21.20;;;11.30;;
76818;SDS011;65772;51.096;17.006;2023-05-01T01:15:47;18.20;;;10.10;;
76818;SDS011;65772;51.096;17.006;2023-05-01T01:18:27;20.30;;;10.60;;
76818;SDS011;65772;51.096;17.006;2023-05-01T01:21:06;19.30;;;10.50;;
76818;SDS011;65772;51.096;17.006;2023-05-01T01:23:46;17.80;;;9.90;;
76818;SDS011;65772;51.096;17.006;2023-05-01T01:26:36;16.90;;;10.20;;
76818;SDS011;65772;51.096;17.006;2023-05-01T01:29:32;19.30;;;10.40;;
76818;SDS011;65772;51.096;17.006;2023-05-01T01:35:25;17.70;;;10.10;;
76818;SDS011;65772;51.096;17.006;2023-05-01T01:38:01;20.90;;;10.80;;
76818;SDS011;65772;51.096;17.006;2023-05-01T01:40:35;18.10;;;10.70;;
76818;SDS011;65772;51.096;17.006;2023-05-01T01:43:12;20.50;;;11.10;;
76818;SDS011;65772;51.096;17.006;2023-05-01T01:45:47;18.80;;;10.50;;
76818;SDS011;65772;51.096;17.006;2023-05-01T01:48:22;19.60;;;11.50;;
76818;SDS011;65772;51.096;17.006;2023-05-01T01:50:58;17.10;;;10.20;;
76818;SDS011;65772;51.096;17.006;2023-05-01T01:53:33;19.00;;;11.10;;
76818;SDS011;65772;51.096;17.006;2023-05-01T01:56:06;19.20;;;10.70;;
76818;SDS011;65772;51.096;17.006;2023-05-01T01:58:38;20.30;;;10.20;;
76818;SDS011;65772;51.096;17.006;2023-05-01T02:01:10;20.30;;;11.60;;
76818;SDS011;65772;51.096;17.006;2023-05-01T02:03:43;17.30;;;10.20;;
76818;SDS011;65772;51.096;17.006;2023-05-01T02:06:15;18.10;;;10.80;;
76818;SDS011;65772;51.096;17.006;2023-05-01T02:08:47;20.60;;;10.80;;
76818;SDS011;65772;51.096;17.006;2023-05-01T02:11:19;18.50;;;10.10;;
76818;SDS011;65772;51.096;17.006;2023-05-01T02:13:53;22.80;;;10.70;;
76818;SDS011;65772;51.096;17.006;2023-05-01T02:16:25;17.10;;;10.00;;
76818;SDS011;65772;51.096;17.006;2023-05-01T02:18:57;17.10;;;10.60;;
76818;SDS011;65772;51.096;17.006;2023-05-01T02:21:30;18.00;;;9.90;;
76818;SDS011;65772;51.096;17.006;2023-05-01T02:24:03;17.80;;;10.30;;
76818;SDS011;65772;51.096;17.006;2023-05-01T02:26:37;19.10;;;10.50;;
76818;SDS011;65772;51.096;17.006;2023-05-01T02:29:10;19.30;;;10.20;;
76818;SDS011;65772;51.096;17.006;2023-05-01T02:31:41;18.80;;;10.10;;
76818;SDS011;65772;51.096;17.006;2023-05-01T02:34:11;21.10;;;11.50;;
76818;SDS011;65772;51.096;17.006;2023-05-01T02:36:42;17.00;;;10.20;;
76818;SDS011;65772;51.096;17.006;2023-05-01T02:39:12;20.90;;;10.70;;
76818;SDS011;65772;51.096;17.006;2023-05-01T02:41:43;19.20;;;10.50;;
76818;SDS011;65772;51.096;17.006;2023-05-01T02:44:17;19.10;;;10.80;;
76818;SDS011;65772;51.096;17.006;2023-05-01T02:46:50;21.80;;;11.80;;
76818;SDS011;65772;51.096;17.006;2023-05-01T02:49:23;17.90;;;9.80;;
76818;SDS011;65772;51.096;17.006;2023-05-01T02:51:54;19.00;;;10.30;;
76818;SDS011;65772;51.096;17.006;2023-05-01T02:54:25;19.90;;;10.40;;
76818;SDS011;65772;51.096;17.006;2023-05-01T02:56:57;19.00;;;9.90;;
76818;SDS011;65772;51.096;17.006;2023-05-01T02:59:28;19.40;;;10.40;;
76818;SDS011;65772;51.096;17.006;2023-05-01T03:02:00;19.50;;;11.70;;
76818;SDS011;65772;51.096;17.006;2023-05-01T03:04:30;16.50;;;9.80;;
76818;SDS011;65772;51.096;17.006;2023-05-01T03:07:01;17.90;;;11.50;;
76818;SDS011;65772;51.096;17.006;2023-05-01T03:09:32;18.50;;;9.80;;
76818;SDS011;65772;51.096;17.006;2023-05-01T03:12:04;14.70;;;9.40;;
76818;SDS011;65772;51.096;17.006;2023-05-01T03:14:34;16.00;;;9.40;;
76818;SDS011;65772;51.096;17.006;2023-05-01T03:17:05;17.40;;;9.70;;
76818;SDS011;65772;51.096;17.006;2023-05-01T03:19:36;17.60;;;10.60;;
76818;SDS011;65772;51.096;17.006;2023-05-01T03:22:09;17.90;;;10.50;;
76818;SDS011;65772;51.096;17.006;2023-05-01T03:24:39;17.80;;;9.70;;
76818;SDS011;65772;51.096;17.006;2023-05-01T03:27:11;19.90;;;9.80;;
76818;SDS011;65772;51.096;17.006;2023-05-01T03:29:41;17.50;;;10.60;;
76818;SDS011;65772;51.096;17.006;2023-05-01T03:32:12;18.60;;;10.70;;
76818;SDS011;65772;51.096;17.006;2023-05-01T03:34:44;16.70;;;10.40;;
76818;SDS011;65772;51.096;17.006;2023-05-01T03:37:15;17.10;;;10.10;;
76818;SDS011;65772;51.096;17.006;2023-05-01T03:39:45;15.30;;;10.00;;
76818;SDS011;65772;51.096;17.006;2023-05-01T03:42:34;16.70;;;9.50;;
76818;SDS011;65772;51.096;17.006;2023-05-01T03:45:10;21.70;;;13.50;;
76818;SDS011;65772;51.096;17.006;2023-05-01T03:47:41;16.60;;;9.80;;
76818;SDS011;65772;51.096;17.006;2023-05-01T03:50:11;18.90;;;10.30;;
76818;SDS011;65772;51.096;17.006;2023-05-01T03:55:12;20.00;;;9.80;;
76818;SDS011;65772;51.096;17.006;2023-05-01T03:57:46;25.70;;;11.80;;
76818;SDS011;65772;51.096;17.006;2023-05-01T04:00:17;17.80;;;9.90;;
76818;SDS011;65772;51.096;17.006;2023-05-01T04:02:48;17.30;;;9.80;;
76818;SDS011;65772;51.096;17.006;2023-05-01T04:05:22;17.70;;;9.90;;
76818;SDS011;65772;51.096;17.006;2023-05-01T04:07:56;20.30;;;10.10;;
76818;SDS011;65772;51.096;17.006;2023-05-01T04:10:27;22.40;;;10.90;;
76818;SDS011;65772;51.096;17.006;2023-05-01T04:13:01;18.10;;;10.70;;
76818;SDS011;65772;51.096;17.006;2023-05-01T04:15:32;22.30;;;11.20;;
76818;SDS011;65772;51.096;17.006;2023-05-01T04:18:02;22.60;;;10.80;;
76818;SDS011;65772;51.096;17.006;2023-05-01T04:20:33;25.10;;;11.80;;
76818;SDS011;65772;51.096;17.006;2023-05-01T04:23:04;20.00;;;11.40;;
76818;SDS011;65772;51.096;17.006;2023-05-01T04:25:36;21.60;;;12.70;;
76818;SDS011;65772;51.096;17.006;2023-05-01T04:28:10;27.50;;;13.80;;
76818;SDS011;65772;51.096;17.006;2023-05-01T04:30:41;19.90;;;12.30;;
76818;SDS011;65772;51.096;17.006;2023-05-01T04:33:11;23.20;;;13.20;;
76818;SDS011;65772;51.096;17.006;2023-05-01T04:35:42;22.30;;;12.90;;
76818;SDS011;65772;51.096;17.006;2023-05-01T04:38:12;21.50;;;12.20;;
76818;SDS011;65772;51.096;17.006;2023-05-01T04:40:43;24.00;;;12.00;;
76818;SDS011;65772;51.096;17.006;2023-05-01T04:43:14;20.40;;;11.50;;
76818;SDS011;65772;51.096;17.006;2023-05-01T04:45:44;20.50;;;10.90;;
76818;SDS011;65772;51.096;17.006;2023-05-01T04:48:15;21.50;;;11.40;;
76818;SDS011;65772;51.096;17.006;2023-05-01T04:50:46;20.40;;;11.80;;
76818;SDS011;65772;51.096;17.006;2023-05-01T04:53:17;17.50;;;10.70;;
76818;SDS011;65772;51.096;17.006;2023-05-01T04:55:47;19.30;;;10.80;;
76818;SDS011;65772;51.096;17.006;2023-05-01T04:58:19;22.10;;;11.30;;
76818;SDS011;65772;51.096;17.006;2023-05-01T05:00:51;16.40;;;10.30;;
76818;SDS011;65772;51.096;17.006;2023-05-01T05:03:22;19.50;;;10.30;;
76818;SDS011;65772;51.096;17.006;2023-05-01T05:05:53;19.60;;;9.60;;
76818;SDS011;65772;51.096;17.006;2023-05-01T05:08:23;20.80;;;10.50;;
76818;SDS011;65772;51.096;17.006;2023-05-01T05:11:07;16.00;;;9.90;;
76818;SDS011;65772;51.096;17.006;2023-05-01T05:13:46;22.40;;;11.50;;
76818;SDS011;65772;51.096;17.006;2023-05-01T05:16:17;20.10;;;10.00;;
76818;SDS011;65772;51.096;17.006;2023-05-01T05:18:47;23.90;;;9.60;;
76818;SDS011;65772;51.096;17.006;2023-05-01T05:21:18;17.90;;;10.20;;
76818;SDS011;65772;51.096;17.006;2023-05-01T05:23:52;20.20;;;10.00;;
76818;SDS011;65772;51.096;17.006;2023-05-01T05:26:23;17.60;;;9.90;;
76818;SDS011;65772;51.096;17.006;2023-05-01T05:28:55;15.70;;;9.10;;
76818;SDS011;65772;51.096;17.006;2023-05-01T05:31:27;17.10;;;9.30;;
76818;SDS011;65772;51.096;17.006;2023-05-01T05:33:58;16.70;;;9.30;;
76818;SDS011;65772;51.096;17.006;2023-05-01T05:36:29;19.10;;;8.90;;
76818;SDS011;65772;51.096;17.006;2023-05-01T05:38:59;18.20;;;9.60;;
76818;SDS011;65772;51.096;17.006;2023-05-01T05:41:30;16.70;;;8.90;;
76818;SDS011;65772;51.096;17.006;2023-05-01T05:44:01;16.70;;;8.30;;
76818;SDS011;65772;51.096;17.006;2023-05-01T05:46:32;17.80;;;9.00;;
76818;SDS011;65772;51.096;17.006;2023-05-01T05:49:02;19.50;;;9.00;;
76818;SDS011;65772;51.096;17.006;2023-05-01T05:51:33;15.60;;;8.10;;
76818;SDS011;65772;51.096;17.006;2023-05-01T05:54:04;15.10;;;8.40;;
76818;SDS011;65772;51.096;17.006;2023-05-01T05:56:35;18.40;;;9.50;;
76818;SDS011;65772;51.096;17.006;2023-05-01T05:59:06;17.10;;;8.40;;
76818;SDS011;65772;51.096;17.006;2023-05-01T06:01:38;14.00;;;7.60;;
76818;SDS011;65772;51.096;17.006;2023-05-01T06:04:09;15.10;;;7.50;;
76818;SDS011;65772;51.096;17.006;2023-05-01T06:06:41;15.80;;;8.70;;
76818;SDS011;65772;51.096;17.006;2023-05-01T06:09:12;15.60;;;7.30;;
76818;SDS011;65772;51.096;17.006;2023-05-01T06:11:43;18.50;;;8.90;;
76818;SDS011;65772;51.096;17.006;2023-05-01T06:14:14;15.40;;;8.50;;
76818;SDS011;65772;51.096;17.006;2023-05-01T06:16:45;16.40;;;7.60;;
76818;SDS011;65772;51.096;17.006;2023-05-01T06:19:16;15.30;;;7.60;;
76818;SDS011;65772;51.096;17.006;2023-05-01T06:21:49;14.90;;;6.60;;
76818;SDS011;65772;51.096;17.006;2023-05-01T06:24:20;15.10;;;7.10;;
76818;SDS011;65772;51.096;17.006;2023-05-01T06:26:52;11.50;;;6.20;;
76818;SDS011;65772;51.096;17.006;2023-05-01T06:29:23;12.10;;;6.70;;
76818;SDS011;65772;51.096;17.006;2023-05-01T06:31:53;11.20;;;6.70;;
76818;SDS011;65772;51.096;17.006;2023-05-01T06:34:25;13.30;;;7.10;;
76818;SDS011;65772;51.096;17.006;2023-05-01T06:36:56;12.60;;;7.00;;
76818;SDS011;65772;51.096;17.006;2023-05-01T06:39:26;15.90;;;7.00;;
76818;SDS011;65772;51.096;17.006;2023-05-01T06:41:57;14.70;;;6.80;;
76818;SDS011;65772;51.096;17.006;2023-05-01T06:44:32;14.90;;;5.90;;
76818;SDS011;65772;51.096;17.006;2023-05-01T06:47:02;15.60;;;7.10;;
76818;SDS011;65772;51.096;17.006;2023-05-01T06:49:33;12.50;;;6.30;;
76818;SDS011;65772;51.096;17.006;2023-05-01T06:52:03;13.80;;;6.50;;
76818;SDS011;65772;51.096;17.006;2023-05-01T06:54:34;12.40;;;5.70;;
76818;SDS011;65772;51.096;17.006;2023-05-01T06:57:04;12.30;;;5.80;;
76818;SDS011;65772;51.096;17.006;2023-05-01T06:59:35;12.00;;;6.40;;
76818;SDS011;65772;51.096;17.006;2023-05-01T07:02:07;15.70;;;5.90;;
76818;SDS011;65772;51.096;17.006;2023-05-01T07:04:38;11.20;;;6.40;;
76818;SDS011;65772;51.096;17.006;2023-05-01T07:07:11;12.70;;;6.60;;
76818;SDS011;65772;51.096;17.006;2023-05-01T07:09:41;13.20;;;6.60;;
76818;SDS011;65772;51.096;17.006;2023-05-01T07:12:12;12.40;;;7.20;;
76818;SDS011;65772;51.096;17.006;2023-05-01T07:14:43;14.20;;;6.90;;
76818;SDS011;65772;51.096;17.006;2023-05-01T07:17:14;13.50;;;5.80;;
76818;SDS011;65772;51.096;17.006;2023-05-01T07:19:44;13.70;;;6.40;;
76818;SDS011;65772;51.096;17.006;2023-05-01T07:22:17;15.40;;;6.40;;
76818;SDS011;65772;51.096;17.006;2023-05-01T07:24:48;11.00;;;5.30;;
76818;SDS011;65772;51.096;17.006;2023-05-01T07:27:18;11.40;;;6.00;;
76818;SDS011;65772;51.096;17.006;2023-05-01T07:29:49;11.30;;;6.10;;
76818;SDS011;65772;51.096;17.006;2023-05-01T07:32:19;12.30;;;5.40;;
76818;SDS011;65772;51.096;17.006;2023-05-01T07:34:50;13.30;;;5.90;;
76818;SDS011;65772;51.096;17.006;2023-05-01T07:37:21;11.50;;;5.50;;
76818;SDS011;65772;51.096;17.006;2023-05-01T07:39:53;12.30;;;5.80;;
76818;SDS011;65772;51.096;17.006;2023-05-01T07:42:26;12.50;;;6.40;;
76818;SDS011;65772;51.096;17.006;2023-05-01T07:47:26;13.20;;;6.40;;
76818;SDS011;65772;51.096;17.006;2023-05-01T07:49:57;11.60;;;6.00;;
76818;SDS011;65772;51.096;17.006;2023-05-01T07:52:34;11.60;;;5.70;;
76818;SDS011;65772;51.096;17.006;2023-05-01T07:55:06;10.40;;;5.40;;
76818;SDS011;65772;51.096;17.006;2023-05-01T07:57:37;13.20;;;5.80;;
76818;SDS011;65772;51.096;17.006;2023-05-01T08:00:09;11.30;;;5.50;;
76818;SDS011;65772;51.096;17.006;2023-05-01T08:02:41;12.00;;;5.80;;
76818;SDS011;65772;51.096;17.006;2023-05-01T08:05:11;11.60;;;5.20;;
76818;SDS011;65772;51.096;17.006;2023-05-01T08:07:42;11.80;;;4.90;;
76818;SDS011;65772;51.096;17.006;2023-05-01T08:10:12;10.50;;;4.60;;
76818;SDS011;65772;51.096;17.006;2023-05-01T08:12:43;9.50;;;4.40;;
76818;SDS011;65772;51.096;17.006;2023-05-01T08:15:14;8.30;;;4.40;;
76818;SDS011;65772;51.096;17.006;2023-05-01T08:17:44;12.00;;;5.00;;
76818;SDS011;65772;51.096;17.006;2023-05-01T08:20:15;9.40;;;4.70;;
76818;SDS011;65772;51.096;17.006;2023-05-01T08:22:45;9.40;;;4.70;;
76818;SDS011;65772;51.096;17.006;2023-05-01T08:25:16;9.30;;;3.70;;
76818;SDS011;65772;51.096;17.006;2023-05-01T08:27:47;9.20;;;3.60;;
76818;SDS011;65772;51.096;17.006;2023-05-01T08:30:19;7.60;;;3.90;;
76818;SDS011;65772;51.096;17.006;2023-05-01T08:32:50;11.00;;;4.20;;
76818;SDS011;65772;51.096;17.006;2023-05-01T08:35:20;8.20;;;4.00;;
76818;SDS011;65772;51.096;17.006;2023-05-01T08:37:51;10.60;;;4.90;;
76818;SDS011;65772;51.096;17.006;2023-05-01T08:40:22;10.30;;;4.50;;
76818;SDS011;65772;51.096;17.006;2023-05-01T08:42:54;10.40;;;5.10;;
76818;SDS011;65772;51.096;17.006;2023-05-01T08:45:25;10.60;;;4.10;;
76818;SDS011;65772;51.096;17.006;2023-05-01T08:50:28;6.50;;;3.20;;
76818;SDS011;65772;51.096;17.006;2023-05-01T08:52:59;13.50;;;4.50;;
76818;SDS011;65772;51.096;17.006;2023-05-01T08:55:31;7.60;;;3.60;;
76818;SDS011;65772;51.096;17.006;2023-05-01T08:58:04;6.80;;;3.90;;
76818;SDS011;65772;51.096;17.006;2023-05-01T09:00:36;9.80;;;4.20;;
76818;SDS011;65772;51.096;17.006;2023-05-01T09:03:08;9.30;;;4.40;;
76818;SDS011;65772;51.096;17.006;2023-05-01T09:05:41;9.70;;;4.20;;
76818;SDS011;65772;51.096;17.006;2023-05-01T09:08:12;8.50;;;3.80;;
76818;SDS011;65772;51.096;17.006;2023-05-01T09:10:43;12.60;;;4.70;;
76818;SDS011;65772;51.096;17.006;2023-05-01T09:13:16;8.90;;;3.70;;
76818;SDS011;65772;51.096;17.006;2023-05-01T09:15:46;8.20;;;3.90;;
76818;SDS011;65772;51.096;17.006;2023-05-01T09:18:17;9.40;;;4.60;;
76818;SDS011;65772;51.096;17.006;2023-05-01T09:20:48;8.40;;;4.00;;
76818;SDS011;65772;51.096;17.006;2023-05-01T09:23:18;10.90;;;5.00;;
76818;SDS011;65772;51.096;17.006;2023-05-01T09:25:49;8.70;;;3.90;;
76818;SDS011;65772;51.096;17.006;2023-05-01T09:28:20;9.20;;;3.20;;
76818;SDS011;65772;51.096;17.006;2023-05-01T09:31:20;8.40;;;3.70;;
76818;SDS011;65772;51.096;17.006;2023-05-01T09:33:53;8.60;;;4.00;;
76818;SDS011;65772;51.096;17.006;2023-05-01T09:36:26;7.50;;;3.90;;
76818;SDS011;65772;51.096;17.006;2023-05-01T09:41:27;8.60;;;3.50;;
76818;SDS011;65772;51.096;17.006;2023-05-01T09:44:00;6.50;;;3.50;;
76818;SDS011;65772;51.096;17.006;2023-05-01T09:46:37;7.00;;;3.50;;
76818;SDS011;65772;51.096;17.006;2023-05-01T09:49:11;8.20;;;3.80;;
76818;SDS011;65772;51.096;17.006;2023-05-01T09:51:42;8.00;;;3.90;;
76818;SDS011;65772;51.096;17.006;2023-05-01T09:54:17;8.60;;;4.10;;
76818;SDS011;65772;51.096;17.006;2023-05-01T09:56:49;7.50;;;3.50;;
76818;SDS011;65772;51.096;17.006;2023-05-01T09:59:20;8.80;;;4.00;;
76818;SDS011;65772;51.096;17.006;2023-05-01T10:01:51;9.00;;;4.00;;
76818;SDS011;65772;51.096;17.006;2023-05-01T10:04:29;9.10;;;3.80;;
76818;SDS011;65772;51.096;17.006;2023-05-01T10:07:10;8.90;;;3.90;;
76818;SDS011;65772;51.096;17.006;2023-05-01T10:09:42;8.50;;;4.20;;
76818;SDS011;65772;51.096;17.006;2023-05-01T10:12:12;9.70;;;3.90;;
76818;SDS011;65772;51.096;17.006;2023-05-01T10:14:53;8.10;;;4.10;;
76818;SDS011;65772;51.096;17.006;2023-05-01T10:17:24;7.90;;;4.00;;
76818;SDS011;65772;51.096;17.006;2023-05-01T10:19:55;7.80;;;4.60;;
76818;SDS011;65772;51.096;17.006;2023-05-01T10:22:26;10.60;;;4.60;;
76818;SDS011;65772;51.096;17.006;2023-05-01T10:24:57;11.80;;;4.40;;
76818;SDS011;65772;51.096;17.006;2023-05-01T10:27:28;8.30;;;4.30;;
76818;SDS011;65772;51.096;17.006;2023-05-01T10:29:59;18.20;;;10.00;;
76818;SDS011;65772;51.096;17.006;2023-05-01T10:32:33;10.20;;;5.00;;
76818;SDS011;65772;51.096;17.006;2023-05-01T10:35:06;7.60;;;3.80;;
76818;SDS011;65772;51.096;17.006;2023-05-01T10:37:43;7.20;;;3.50;;
76818;SDS011;65772;51.096;17.006;2023-05-01T10:43:16;8.20;;;4.60;;
76818;SDS011;65772;51.096;17.006;2023-05-01T10:45:52;6.90;;;3.80;;
76818;SDS011;65772;51.096;17.006;2023-05-01T10:48:57;7.10;;;3.40;;
76818;SDS011;65772;51.096;17.006;2023-05-01T10:51:28;10.10;;;3.70;;
76818;SDS011;65772;51.096;17.006;2023-05-01T10:56:56;10.70;;;5.40;;
76818;SDS011;65772;51.096;17.006;2023-05-01T10:59:28;7.20;;;4.10;;
76818;SDS011;65772;51.096;17.006;2023-05-01T11:02:37;9.60;;;3.30;;
76818;SDS011;65772;51.096;17.006;2023-05-01T11:05:07;6.90;;;3.50;;
76818;SDS011;65772;51.096;17.006;2023-05-01T11:07:38;9.20;;;3.30;;
76818;SDS011;65772;51.096;17.006;2023-05-01T11:12:55;8.30;;;3.20;;
76818;SDS011;65772;51.096;17.006;2023-05-01T11:15:27;10.00;;;3.90;;
76818;SDS011;65772;51.096;17.006;2023-05-01T11:17:59;6.90;;;3.50;;
76818;SDS011;65772;51.096;17.006;2023-05-01T11:23:23;8.00;;;3.70;;
76818;SDS011;65772;51.096;17.006;2023-05-01T11:26:03;8.80;;;3.50;;
76818;SDS011;65772;51.096;17.006;2023-05-01T11:28:33;5.70;;;3.20;;
76818;SDS011;65772;51.096;17.006;2023-05-01T11:31:06;9.60;;;4.30;;
76818;SDS011;65772;51.096;17.006;2023-05-01T11:33:37;11.40;;;4.00;;
76818;SDS011;65772;51.096;17.006;2023-05-01T11:36:07;9.10;;;3.80;;
76818;SDS011;65772;51.096;17.006;2023-05-01T11:38:38;12.00;;;6.30;;
76818;SDS011;65772;51.096;17.006;2023-05-01T11:41:19;16.20;;;9.50;;
76818;SDS011;65772;51.096;17.006;2023-05-01T11:43:51;12.80;;;4.80;;
76818;SDS011;65772;51.096;17.006;2023-05-01T11:46:26;7.80;;;3.70;;
76818;SDS011;65772;51.096;17.006;2023-05-01T11:48:58;7.40;;;3.60;;
76818;SDS011;65772;51.096;17.006;2023-05-01T11:51:30;5.90;;;3.30;;
76818;SDS011;65772;51.096;17.006;2023-05-01T11:54:01;7.80;;;3.70;;
76818;SDS011;65772;51.096;17.006;2023-05-01T11:56:32;6.70;;;3.20;;
76818;SDS011;65772;51.096;17.006;2023-05-01T11:59:11;8.50;;;3.50;;
76818;SDS011;65772;51.096;17.006;2023-05-01T12:01:43;8.00;;;3.30;;
76818;SDS011;65772;51.096;17.006;2023-05-01T12:04:22;6.90;;;3.10;;
76818;SDS011;65772;51.096;17.006;2023-05-01T12:06:58;7.90;;;3.10;;
76818;SDS011;65772;51.096;17.006;2023-05-01T12:09:30;6.70;;;3.20;;
76818;SDS011;65772;51.096;17.006;2023-05-01T12:12:01;6.70;;;3.40;;
76818;SDS011;65772;51.096;17.006;2023-05-01T12:14:32;8.70;;;3.20;;
76818;SDS011;65772;51.096;17.006;2023-05-01T12:17:03;6.80;;;3.20;;
76818;SDS011;65772;51.096;17.006;2023-05-01T12:19:36;8.30;;;3.60;;
76818;SDS011;65772;51.096;17.006;2023-05-01T12:22:16;9.60;;;3.50;;
76818;SDS011;65772;51.096;17.006;2023-05-01T12:24:50;9.20;;;3.80;;
76818;SDS011;65772;51.096;17.006;2023-05-01T12:27:21;6.30;;;2.90;;
76818;SDS011;65772;51.096;17.006;2023-05-01T12:29:51;9.00;;;3.90;;
76818;SDS011;65772;51.096;17.006;2023-05-01T12:32:29;9.10;;;3.80;;
76818;SDS011;65772;51.096;17.006;2023-05-01T12:35:12;7.00;;;3.70;;
76818;SDS011;65772;51.096;17.006;2023-05-01T12:37:43;6.80;;;3.00;;
76818;SDS011;65772;51.096;17.006;2023-05-01T12:40:14;7.10;;;3.80;;
76818;SDS011;65772;51.096;17.006;2023-05-01T12:42:46;10.70;;;3.50;;
76818;SDS011;65772;51.096;17.006;2023-05-01T12:45:25;6.10;;;3.90;;
76818;SDS011;65772;51.096;17.006;2023-05-01T12:47:55;6.90;;;3.30;;
76818;SDS011;65772;51.096;17.006;2023-05-01T12:50:26;6.20;;;3.20;;
76818;SDS011;65772;51.096;17.006;2023-05-01T12:52:56;7.00;;;3.60;;
76818;SDS011;65772;51.096;17.006;2023-05-01T12:55:38;7.10;;;3.40;;
76818;SDS011;65772;51.096;17.006;2023-05-01T12:58:13;7.40;;;4.10;;
76818;SDS011;65772;51.096;17.006;2023-05-01T13:03:14;8.90;;;3.60;;
76818;SDS011;65772;51.096;17.006;2023-05-01T13:05:53;9.40;;;3.60;;
76818;SDS011;65772;51.096;17.006;2023-05-01T13:08:26;10.80;;;3.80;;
76818;SDS011;65772;51.096;17.006;2023-05-01T13:10:59;6.20;;;3.00;;
76818;SDS011;65772;51.096;17.006;2023-05-01T13:13:39;8.30;;;3.60;;
76818;SDS011;65772;51.096;17.006;2023-05-01T13:18:45;7.90;;;3.60;;
76818;SDS011;65772;51.096;17.006;2023-05-01T13:21:17;6.80;;;3.20;;
76818;SDS011;65772;51.096;17.006;2023-05-01T13:23:52;8.50;;;3.60;;
76818;SDS011;65772;51.096;17.006;2023-05-01T13:26:25;8.10;;;4.00;;
76818;SDS011;65772;51.096;17.006;2023-05-01T13:28:57;8.40;;;3.60;;
76818;SDS011;65772;51.096;17.006;2023-05-01T13:31:29;9.10;;;3.80;;
76818;SDS011;65772;51.096;17.006;2023-05-01T13:34:00;8.50;;;4.00;;
76818;SDS011;65772;51.096;17.006;2023-05-01T13:36:33;10.30;;;3.60;;
76818;SDS011;65772;51.096;17.006;2023-05-01T13:39:04;10.20;;;3.70;;
76818;SDS011;65772;51.096;17.006;2023-05-01T13:41:34;8.20;;;4.00;;
76818;SDS011;65772;51.096;17.006;2023-05-01T13:44:10;8.00;;;4.30;;
76818;SDS011;65772;51.096;17.006;2023-05-01T13:46:40;7.00;;;3.30;;
76818;SDS011;65772;51.096;17.006;2023-05-01T13:49:12;7.90;;;4.00;;
76818;SDS011;65772;51.096;17.006;2023-05-01T13:51:45;9.10;;;4.00;;
76818;SDS011;65772;51.096;17.006;2023-05-01T13:54:16;9.80;;;4.00;;
76818;SDS011;65772;51.096;17.006;2023-05-01T13:56:48;6.90;;;3.20;;
76818;SDS011;65772;51.096;17.006;2023-05-01T13:59:19;7.10;;;3.90;;
76818;SDS011;65772;51.096;17.006;2023-05-01T14:01:50;9.60;;;4.30;;
76818;SDS011;65772;51.096;17.006;2023-05-01T14:04:21;8.60;;;3.70;;
76818;SDS011;65772;51.096;17.006;2023-05-01T14:06:51;7.00;;;3.30;;
76818;SDS011;65772;51.096;17.006;2023-05-01T14:09:23;6.70;;;3.50;;
76818;SDS011;65772;51.096;17.006;2023-05-01T14:11:55;6.00;;;3.10;;
76818;SDS011;65772;51.096;17.006;2023-05-01T14:14:26;6.80;;;3.10;;
76818;SDS011;65772;51.096;17.006;2023-05-01T14:16:56;6.40;;;3.20;;
76818;SDS011;65772;51.096;17.006;2023-05-01T14:19:27;5.30;;;2.80;;
76818;SDS011;65772;51.096;17.006;2023-05-01T14:21:57;5.30;;;3.00;;
76818;SDS011;65772;51.096;17.006;2023-05-01T14:24:29;7.50;;;2.80;;
76818;SDS011;65772;51.096;17.006;2023-05-01T14:27:01;7.10;;;3.40;;
76818;SDS011;65772;51.096;17.006;2023-05-01T14:29:32;5.50;;;2.70;;
76818;SDS011;65772;51.096;17.006;2023-05-01T14:32:03;6.40;;;3.00;;
76818;SDS011;65772;51.096;17.006;2023-05-01T14:34:35;7.10;;;3.00;;
76818;SDS011;65772;51.096;17.006;2023-05-01T14:37:09;9.50;;;3.10;;
76818;SDS011;65772;51.096;17.006;2023-05-01T14:39:41;8.00;;;3.10;;
76818;SDS011;65772;51.096;17.006;2023-05-01T14:42:12;5.70;;;3.10;;
76818;SDS011;65772;51.096;17.006;2023-05-01T14:44:43;5.10;;;2.80;;
76818;SDS011;65772;51.096;17.006;2023-05-01T14:47:13;5.40;;;2.70;;
76818;SDS011;65772;51.096;17.006;2023-05-01T14:49:51;5.80;;;2.90;;
76818;SDS011;65772;51.096;17.006;2023-05-01T14:52:21;8.10;;;2.60;;
76818;SDS011;65772;51.096;17.006;2023-05-01T14:54:52;6.70;;;2.70;;
76818;SDS011;65772;51.096;17.006;2023-05-01T14:57:23;4.50;;;2.20;;
76818;SDS011;65772;51.096;17.006;2023-05-01T14:59:55;5.10;;;2.20;;
76818;SDS011;65772;51.096;17.006;2023-05-01T15:02:26;6.50;;;2.50;;
76818;SDS011;65772;51.096;17.006;2023-05-01T15:04:58;4.10;;;2.20;;
76818;SDS011;65772;51.096;17.006;2023-05-01T15:07:30;5.40;;;2.20;;
76818;SDS011;65772;51.096;17.006;2023-05-01T15:10:00;5.70;;;2.10;;
76818;SDS011;65772;51.096;17.006;2023-05-01T15:12:31;5.80;;;2.40;;
76818;SDS011;65772;51.096;17.006;2023-05-01T15:15:02;4.30;;;2.30;;
76818;SDS011;65772;51.096;17.006;2023-05-01T15:20:03;4.80;;;2.30;;
76818;SDS011;65772;51.096;17.006;2023-05-01T15:22:36;4.80;;;2.30;;
76818;SDS011;65772;51.096;17.006;2023-05-01T15:25:08;6.30;;;2.60;;
76818;SDS011;65772;51.096;17.006;2023-05-01T15:27:39;6.70;;;2.40;;